createdAt,value
2019-02-18T00:01:42.311Z,12.93
2019-02-18T00:04:11.750Z,14.83
2019-02-18T00:07:14.452Z,15.83
2019-02-18T00:10:07.185Z,13.43
2019-02-18T00:15:30.224Z,11.17
2019-02-18T00:17:59.574Z,13.00
2019-02-18T00:20:28.862Z,12.37
2019-02-18T00:22:58.187Z,13.47
2019-02-18T00:25:27.552Z,13.90
2019-02-18T00:27:56.858Z,13.40
2019-02-18T00:30:41.063Z,15.40
2019-02-18T00:33:10.379Z,14.37
2019-02-18T00:38:34.378Z,9.57
2019-02-18T00:41:03.797Z,13.50
2019-02-18T00:43:52.735Z,12.57
2019-02-18T00:46:22.314Z,14.33
2019-02-18T00:48:51.652Z,11.50
2019-02-18T00:51:21.814Z,12.13
2019-02-18T00:53:51.206Z,13.97
2019-02-18T00:56:20.595Z,11.40
2019-02-18T00:58:49.968Z,11.67
2019-02-18T01:01:19.757Z,13.20
2019-02-18T01:03:49.403Z,12.20
2019-02-18T01:06:18.941Z,11.73
2019-02-18T01:08:48.431Z,9.60
2019-02-18T01:11:17.946Z,15.67
2019-02-18T01:13:47.246Z,12.47
2019-02-18T01:16:17.475Z,11.47
2019-02-18T01:18:46.871Z,12.73
2019-02-18T01:21:16.174Z,13.90
2019-02-18T01:23:45.591Z,10.57
2019-02-18T01:26:15.003Z,15.20
2019-02-18T01:28:44.427Z,13.33
2019-02-18T01:31:13.859Z,15.20
2019-02-18T01:33:43.287Z,15.27
2019-02-18T01:36:12.939Z,15.20
2019-02-18T01:38:42.531Z,16.33
2019-02-18T01:41:12.684Z,11.57
2019-02-18T01:43:42.142Z,16.50
2019-02-18T01:46:11.553Z,12.53
2019-02-18T01:48:41.027Z,11.00
2019-02-18T01:51:10.788Z,9.80
2019-02-18T01:53:42.808Z,12.73
2019-02-18T01:56:14.530Z,9.67
2019-02-18T01:58:44.000Z,11.00
2019-02-18T02:01:14.149Z,12.37
2019-02-18T02:03:46.919Z,10.83
2019-02-18T02:06:16.282Z,12.20
2019-02-18T02:08:45.539Z,12.33
2019-02-18T02:11:15.547Z,10.53
2019-02-18T02:13:49.763Z,10.93
2019-02-18T02:16:21.684Z,11.27
2019-02-18T02:18:51.208Z,10.37
2019-02-18T02:21:21.228Z,10.27
2019-02-18T02:23:52.145Z,9.17
2019-02-18T02:26:21.941Z,9.33
2019-02-18T02:28:51.379Z,9.87
2019-02-18T02:31:20.878Z,8.40
2019-02-18T02:33:50.930Z,8.87
2019-02-18T02:36:20.562Z,9.73
2019-02-18T02:38:50.181Z,12.13
2019-02-18T02:41:19.627Z,7.40
2019-02-18T02:43:48.944Z,9.90
2019-02-18T02:46:19.274Z,8.43
2019-02-18T02:48:50.648Z,8.67
2019-02-18T02:51:19.923Z,8.00
2019-02-18T02:53:49.252Z,8.23
2019-02-18T02:56:18.643Z,7.93
2019-02-18T02:58:49.247Z,8.73
2019-02-18T03:01:18.577Z,7.20
2019-02-18T03:03:48.021Z,12.57
2019-02-18T03:06:17.812Z,9.40
2019-02-18T03:08:47.237Z,8.13
2019-02-18T03:11:18.066Z,12.27
2019-02-18T03:13:47.571Z,8.00
2019-02-18T03:16:19.830Z,11.37
2019-02-18T03:18:49.910Z,8.50
2019-02-18T03:21:20.617Z,10.40
2019-02-18T03:23:55.717Z,9.40
2019-02-18T03:26:23.465Z,10.10
2019-02-18T03:29:29.264Z,9.40
2019-02-18T03:32:01.917Z,8.60
2019-02-18T03:34:39.836Z,7.17
2019-02-18T03:37:09.637Z,10.87
2019-02-18T03:39:38.977Z,10.53
2019-02-18T03:42:08.612Z,9.30
2019-02-18T03:44:41.482Z,7.97
2019-02-18T03:47:11.518Z,7.87
2019-02-18T03:49:41.447Z,8.03
2019-02-18T03:52:10.886Z,10.93
2019-02-18T03:54:40.616Z,11.07
2019-02-18T03:57:10.009Z,7.47
2019-02-18T03:59:39.400Z,10.80
2019-02-18T04:02:08.775Z,7.90
2019-02-18T04:04:38.277Z,6.43
2019-02-18T04:07:07.963Z,7.67
2019-02-18T04:09:37.668Z,6.70
2019-02-18T04:12:07.197Z,7.77
2019-02-18T04:14:36.511Z,7.30
2019-02-18T04:17:07.749Z,11.37
2019-02-18T04:19:37.109Z,9.77
2019-02-18T04:22:06.535Z,10.03
2019-02-18T04:24:36.476Z,11.03
2019-02-18T04:27:05.736Z,10.27
2019-02-18T04:29:34.899Z,9.93
2019-02-18T04:32:04.378Z,10.17
2019-02-18T04:34:33.751Z,9.00
2019-02-18T04:37:03.173Z,6.73
2019-02-18T04:39:32.789Z,8.50
2019-02-18T04:42:02.304Z,8.43
2019-02-18T04:44:36.551Z,6.43
2019-02-18T04:47:05.666Z,9.33
2019-02-18T04:49:35.451Z,8.60
2019-02-18T04:52:04.724Z,8.47
2019-02-18T04:54:34.362Z,10.30
2019-02-18T04:57:05.787Z,9.17
2019-02-18T04:59:35.253Z,10.70
2019-02-18T05:02:04.731Z,8.73
2019-02-18T05:04:34.207Z,10.37
2019-02-18T05:07:03.879Z,8.00
2019-02-18T05:09:33.420Z,9.60
2019-02-18T05:12:03.009Z,9.40
2019-02-18T05:14:33.441Z,8.53
2019-02-18T05:17:04.241Z,7.57
2019-02-18T05:19:33.656Z,8.23
2019-02-18T05:22:03.117Z,9.53
2019-02-18T05:24:34.904Z,10.27
2019-02-18T05:27:04.558Z,8.50
2019-02-18T05:29:34.213Z,8.63
2019-02-18T05:32:03.649Z,8.63
2019-02-18T05:34:32.881Z,10.03
2019-02-18T05:37:02.175Z,7.03
2019-02-18T05:39:31.450Z,10.00
2019-02-18T05:42:00.829Z,9.30
2019-02-18T05:44:29.979Z,9.97
2019-02-18T05:46:59.535Z,9.87
2019-02-18T05:49:28.876Z,11.73
2019-02-18T05:51:58.363Z,8.20
2019-02-18T05:54:27.919Z,7.07
2019-02-18T05:56:57.419Z,7.37
2019-02-18T06:00:03.938Z,5.97
2019-02-18T06:02:32.972Z,6.40
2019-02-18T06:05:02.700Z,7.97
2019-02-18T06:07:38.723Z,8.43
2019-02-18T06:10:08.717Z,6.00
2019-02-18T06:12:38.072Z,8.37
2019-02-18T06:15:08.541Z,9.40
2019-02-18T06:17:37.943Z,9.23
2019-02-18T06:20:07.529Z,8.53
2019-02-18T06:22:38.565Z,9.90
2019-02-18T06:25:08.211Z,10.13
2019-02-18T06:27:37.881Z,10.93
2019-02-18T06:30:08.246Z,8.73
2019-02-18T06:32:37.725Z,8.83
2019-02-18T06:35:07.554Z,7.93
2019-02-18T06:37:37.181Z,7.93
2019-02-18T06:40:07.360Z,8.50
2019-02-18T06:42:36.884Z,9.27
2019-02-18T06:45:34.373Z,6.83
2019-02-18T06:48:28.649Z,8.70
2019-02-18T06:50:58.103Z,7.47
2019-02-18T06:53:27.688Z,9.43
2019-02-18T06:55:57.309Z,9.03
2019-02-18T06:58:51.995Z,8.50
2019-02-18T07:01:38.763Z,9.23
2019-02-18T07:04:21.502Z,8.67
2019-02-18T07:07:03.072Z,9.70
2019-02-18T07:10:09.293Z,8.30
2019-02-18T07:12:42.550Z,9.37
2019-02-18T07:15:13.987Z,9.73
2019-02-18T07:17:43.094Z,5.80
2019-02-18T07:20:12.572Z,6.27
2019-02-18T07:22:41.931Z,10.17
2019-02-18T07:25:11.609Z,6.90
2019-02-18T07:27:41.015Z,10.70
2019-02-18T07:30:13.014Z,14.00
2019-02-18T07:32:42.529Z,12.20
2019-02-18T07:35:11.961Z,6.40
2019-02-18T07:37:41.334Z,8.73
2019-02-18T07:40:11.304Z,9.63
2019-02-18T07:42:41.145Z,8.27
2019-02-18T07:45:10.830Z,8.60
2019-02-18T07:47:40.274Z,7.70
2019-02-18T07:50:20.015Z,8.27
2019-02-18T07:52:41.120Z,12.80
2019-02-18T07:55:10.916Z,10.07
2019-02-18T07:57:40.234Z,11.60
2019-02-18T08:00:11.399Z,10.63
2019-02-18T08:02:40.924Z,10.10
2019-02-18T08:05:10.541Z,10.10
2019-02-18T08:07:39.945Z,9.17
2019-02-18T08:10:12.347Z,10.70
2019-02-18T08:12:41.289Z,8.50
2019-02-18T08:15:11.014Z,11.30
2019-02-18T08:17:41.768Z,10.37
2019-02-18T08:20:11.339Z,10.50
2019-02-18T08:22:40.816Z,10.40
2019-02-18T08:25:12.189Z,11.77
2019-02-18T08:27:41.590Z,9.43
2019-02-18T08:30:12.104Z,9.33
2019-02-18T08:32:41.649Z,13.90
2019-02-18T08:35:11.282Z,11.70
2019-02-18T08:37:40.518Z,17.00
2019-02-18T08:40:10.295Z,8.77
2019-02-18T08:42:39.757Z,11.87
2019-02-18T08:45:10.647Z,9.70
2019-02-18T08:47:40.358Z,12.30
2019-02-18T08:50:11.194Z,12.60
2019-02-18T08:52:40.717Z,10.27
2019-02-18T08:55:11.715Z,10.67
2019-02-18T08:57:41.087Z,12.93
2019-02-18T09:00:13.474Z,12.00
2019-02-18T09:02:43.092Z,11.23
2019-02-18T09:05:31.574Z,10.50
2019-02-18T09:08:01.101Z,7.80
2019-02-18T09:10:33.891Z,8.27
2019-02-18T09:13:04.021Z,10.03
2019-02-18T09:15:35.352Z,10.40
2019-02-18T09:18:04.521Z,11.93
2019-02-18T09:20:35.085Z,12.57
2019-02-18T09:23:12.316Z,13.37
2019-02-18T09:25:49.284Z,10.27
2019-02-18T09:28:18.848Z,11.03
2019-02-18T09:30:51.612Z,10.17
2019-02-18T09:33:21.194Z,12.73
2019-02-18T09:35:50.871Z,10.63
2019-02-18T09:38:24.854Z,11.53
2019-02-18T09:40:51.759Z,12.97
2019-02-18T09:43:21.353Z,10.03
2019-02-18T09:45:50.728Z,12.37
2019-02-18T09:48:20.140Z,10.37
2019-02-18T09:50:49.474Z,12.33
2019-02-18T09:53:18.937Z,12.53
2019-02-18T09:55:48.250Z,10.93
2019-02-18T09:58:17.793Z,12.70
2019-02-18T10:00:47.302Z,13.30
2019-02-18T10:03:16.850Z,16.27
2019-02-18T10:06:05.445Z,11.33
2019-02-18T10:08:34.862Z,12.60
2019-02-18T10:11:04.324Z,13.37
2019-02-18T10:13:33.777Z,13.43
2019-02-18T10:16:03.197Z,11.07
2019-02-18T10:18:32.549Z,15.63
2019-02-18T10:21:01.983Z,12.00
2019-02-18T10:23:31.479Z,15.77
2019-02-18T10:26:01.214Z,12.10
2019-02-18T10:28:30.680Z,17.50
2019-02-18T10:31:00.236Z,16.70
2019-02-18T10:33:29.780Z,16.00
2019-02-18T10:35:59.375Z,15.17
2019-02-18T10:38:28.856Z,11.53
2019-02-18T10:41:06.600Z,12.20
2019-02-18T10:43:32.544Z,14.43
2019-02-18T10:46:00.599Z,14.00
2019-02-18T10:48:29.987Z,11.67
2019-02-18T10:50:59.494Z,13.27
2019-02-18T10:53:28.906Z,14.23
2019-02-18T10:55:58.368Z,11.73
2019-02-18T10:58:27.747Z,16.23
2019-02-18T11:00:57.248Z,13.43
2019-02-18T11:03:27.649Z,13.33
2019-02-18T11:05:57.051Z,12.47
2019-02-18T11:08:26.414Z,15.70
2019-02-18T11:10:55.794Z,15.73
2019-02-18T11:13:25.303Z,13.80
2019-02-18T11:16:09.093Z,16.93
2019-02-18T11:18:29.729Z,11.13
2019-02-18T11:21:00.412Z,13.07
2019-02-18T11:23:32.741Z,10.50
2019-02-18T11:29:33.673Z,11.60
2019-02-18T11:32:03.271Z,13.57
2019-02-18T11:34:32.757Z,10.77
2019-02-18T11:37:02.114Z,13.57
2019-02-18T11:39:31.528Z,11.43
2019-02-18T11:42:00.943Z,11.50
2019-02-18T11:44:30.296Z,11.43
2019-02-18T11:46:59.969Z,12.23
2019-02-18T11:49:29.593Z,9.00
2019-02-18T11:52:00.117Z,11.40
2019-02-18T11:54:29.690Z,11.77
2019-02-18T11:56:59.158Z,10.70
2019-02-18T11:59:34.353Z,15.07
2019-02-18T12:02:03.526Z,12.87
2019-02-18T12:04:34.191Z,11.07
2019-02-18T12:07:03.581Z,11.97
2019-02-18T12:09:33.110Z,13.20
2019-02-18T12:12:13.428Z,9.50
2019-02-18T12:14:34.257Z,13.83
2019-02-18T12:17:03.631Z,11.20
2019-02-18T12:19:34.699Z,12.47
2019-02-18T12:22:04.128Z,12.43
2019-02-18T12:25:10.609Z,12.13
2019-02-18T12:27:37.496Z,11.27
2019-02-18T12:30:07.654Z,8.87
2019-02-18T12:32:37.103Z,10.07
2019-02-18T12:35:06.536Z,12.93
2019-02-18T12:37:35.833Z,13.43
2019-02-18T12:40:05.383Z,10.27
2019-02-18T12:42:34.967Z,12.90
2019-02-18T12:45:07.760Z,10.50
2019-02-18T12:47:38.897Z,10.47
2019-02-18T12:50:08.531Z,9.53
2019-02-18T12:52:37.973Z,11.10
2019-02-18T12:55:07.648Z,10.40
2019-02-18T12:57:39.166Z,9.20
2019-02-18T13:00:10.114Z,11.40
2019-02-18T13:05:15.533Z,11.17
2019-02-18T13:07:44.952Z,10.30
2019-02-18T13:10:35.258Z,11.47
2019-02-18T13:13:04.444Z,10.60
2019-02-18T13:15:33.672Z,11.20
2019-02-18T13:20:32.399Z,11.77
2019-02-18T13:23:03.733Z,10.93
2019-02-18T13:25:33.368Z,13.37
2019-02-18T13:28:08.505Z,9.47
2019-02-18T13:30:39.811Z,12.00
2019-02-18T13:33:15.421Z,10.97
2019-02-18T13:35:46.846Z,12.80
2019-02-18T13:38:16.917Z,12.13
2019-02-18T13:40:46.477Z,9.50
2019-02-18T13:43:16.078Z,10.90
2019-02-18T13:45:49.519Z,10.27
2019-02-18T13:48:18.713Z,10.50
2019-02-18T13:50:48.361Z,13.67
2019-02-18T13:53:17.568Z,11.17
2019-02-18T13:55:47.106Z,13.17
2019-02-18T13:58:21.642Z,14.03
2019-02-18T14:00:51.536Z,9.10
2019-02-18T14:03:20.797Z,9.67
2019-02-18T14:05:50.905Z,12.53
2019-02-18T14:08:20.515Z,11.57
2019-02-18T14:10:49.567Z,9.10
2019-02-18T14:13:19.281Z,11.30
2019-02-18T14:15:50.208Z,11.07
2019-02-18T14:18:25.551Z,9.57
2019-02-18T14:20:54.843Z,9.70
2019-02-18T14:23:24.135Z,10.70
2019-02-18T14:25:53.908Z,11.67
2019-02-18T14:28:23.459Z,12.43
2019-02-18T14:30:53.051Z,10.63
2019-02-18T14:33:22.455Z,10.67
2019-02-18T14:35:52.853Z,10.63
2019-02-18T14:38:30.071Z,10.97
2019-02-18T14:41:00.820Z,11.53
2019-02-18T14:43:49.430Z,13.50
2019-02-18T14:46:18.683Z,11.03
2019-02-18T14:48:47.955Z,9.73
2019-02-18T14:51:17.293Z,10.20
2019-02-18T14:53:50.274Z,10.80
2019-02-18T14:56:25.364Z,8.13
2019-02-18T14:58:54.747Z,8.60
2019-02-18T15:01:26.860Z,13.03
2019-02-18T15:03:59.332Z,9.27
2019-02-18T15:06:29.342Z,11.50
2019-02-18T15:09:02.221Z,10.30
2019-02-18T15:11:31.506Z,12.03
2019-02-18T15:14:00.932Z,10.60
2019-02-18T15:16:31.428Z,9.37
2019-02-18T15:19:01.256Z,11.77
2019-02-18T15:21:31.376Z,7.47
2019-02-18T15:24:03.309Z,9.97
2019-02-18T15:26:33.296Z,11.87
2019-02-18T15:29:03.048Z,11.67
2019-02-18T15:31:32.706Z,9.10
2019-02-18T15:34:02.086Z,11.20
2019-02-18T15:36:36.804Z,10.23
2019-02-18T15:41:42.210Z,9.10
2019-02-18T15:44:11.583Z,14.57
2019-02-18T15:46:41.016Z,8.23
2019-02-18T15:49:11.380Z,10.80
2019-02-18T15:51:40.841Z,9.93
2019-02-18T15:54:10.221Z,8.20
2019-02-18T15:56:39.512Z,10.63
2019-02-18T15:59:08.888Z,12.23
2019-02-18T16:01:40.225Z,11.27
2019-02-18T16:04:09.656Z,11.10
2019-02-18T16:06:39.194Z,9.57
2019-02-18T16:09:11.333Z,10.97
2019-02-18T16:11:41.007Z,7.07
2019-02-18T16:14:12.550Z,9.37
2019-02-18T16:16:44.823Z,11.67
2019-02-18T16:19:14.240Z,11.53
2019-02-18T16:21:43.945Z,11.83
2019-02-18T16:24:20.037Z,11.00
2019-02-18T16:26:44.692Z,14.10
2019-02-18T16:29:17.480Z,10.77
2019-02-18T16:31:46.877Z,12.27
2019-02-18T16:34:18.370Z,14.97
2019-02-18T16:37:08.484Z,9.90
2019-02-18T16:39:38.654Z,11.30
2019-02-18T16:42:08.360Z,11.87
2019-02-18T16:44:47.871Z,12.67
2019-02-18T16:47:17.185Z,11.73
2019-02-18T16:49:49.724Z,10.37
2019-02-18T16:52:19.134Z,10.20
2019-02-18T16:54:48.547Z,9.73
2019-02-18T16:57:41.720Z,13.60
2019-02-18T17:00:25.662Z,13.73
2019-02-18T17:02:59.579Z,12.50
2019-02-18T17:05:28.750Z,9.87
2019-02-18T17:07:58.141Z,13.90
2019-02-18T17:13:28.366Z,15.13
2019-02-18T17:18:41.724Z,14.30
2019-02-18T17:22:07.099Z,15.57
2019-02-18T17:27:39.692Z,14.87
2019-02-18T17:30:15.010Z,11.20
2019-02-18T17:35:53.141Z,12.97
2019-02-18T17:38:48.375Z,10.60
2019-02-18T17:41:39.906Z,10.70
2019-02-18T17:44:44.071Z,9.93
2019-02-18T17:50:10.857Z,9.43
2019-02-18T17:55:16.118Z,8.60
2019-02-18T17:57:48.309Z,10.03
2019-02-18T18:00:41.220Z,7.00
2019-02-18T18:08:31.315Z,14.67
2019-02-18T18:11:02.609Z,14.00
2019-02-18T18:13:32.088Z,12.90
2019-02-18T18:16:03.256Z,14.03
2019-02-18T18:21:53.864Z,9.87
2019-02-18T18:24:23.201Z,9.93
2019-02-18T18:29:39.454Z,13.77
2019-02-18T18:32:09.376Z,10.93
2019-02-18T18:34:40.167Z,12.60
2019-02-18T18:37:10.548Z,14.40
2019-02-18T18:45:15.613Z,12.60
2019-02-18T18:58:43.078Z,17.30
2019-02-18T19:01:12.678Z,12.47
2019-02-18T19:12:15.628Z,12.27
2019-02-18T19:14:22.631Z,12.07
2019-02-18T19:16:52.293Z,12.90
2019-02-18T19:21:57.582Z,17.20
2019-02-18T19:24:26.945Z,10.23
2019-02-18T19:27:25.484Z,17.40
2019-02-18T19:29:54.841Z,12.40
2019-02-18T19:32:24.273Z,10.63
2019-02-18T19:34:56.360Z,13.33
2019-02-18T19:37:28.313Z,11.17
2019-02-18T19:39:59.436Z,13.17
2019-02-18T19:42:28.850Z,10.93
2019-02-18T19:44:57.987Z,13.17
2019-02-18T19:47:27.533Z,11.80
2019-02-18T19:49:57.659Z,17.73
2019-02-18T19:52:26.949Z,11.50
2019-02-18T19:54:56.238Z,12.53
2019-02-18T19:57:26.031Z,12.55
2019-02-18T20:00:15.368Z,15.13
2019-02-18T20:03:21.470Z,15.77
2019-02-18T20:06:10.010Z,12.30
2019-02-18T20:11:50.871Z,16.73
2019-02-18T20:14:40.970Z,10.33
2019-02-18T20:17:29.835Z,18.33
2019-02-18T20:22:37.382Z,16.90
2019-02-18T20:28:11.437Z,13.03
2019-02-18T20:31:11.619Z,19.70
2019-02-18T20:34:10.760Z,13.03
2019-02-18T20:37:12.574Z,14.23
2019-02-18T20:40:13.400Z,17.57
2019-02-18T20:43:11.085Z,17.13
2019-02-18T20:46:09.482Z,14.07
2019-02-18T20:51:14.925Z,20.63
2019-02-18T20:53:44.384Z,13.23
2019-02-18T20:56:39.407Z,13.07
2019-02-18T20:59:38.756Z,11.67
2019-02-18T21:04:49.698Z,12.37
2019-02-18T21:07:19.231Z,15.40
2019-02-18T21:09:48.918Z,13.47
2019-02-18T21:12:20.009Z,17.10
2019-02-18T21:15:26.697Z,20.63
2019-02-18T21:17:56.310Z,23.00
2019-02-18T21:21:08.465Z,19.07
2019-02-18T21:23:37.980Z,16.30
2019-02-18T21:26:40.264Z,14.70
2019-02-18T21:29:12.194Z,18.80
2019-02-18T21:31:40.882Z,13.80
2019-02-18T21:34:10.840Z,20.80
2019-02-18T21:52:05.390Z,19.77
2019-02-18T22:03:29.633Z,16.73
2019-02-18T22:05:59.111Z,18.33
2019-02-18T22:08:30.285Z,14.23
2019-02-18T22:15:16.928Z,14.23
2019-02-18T22:18:09.744Z,14.07
2019-02-18T22:20:40.961Z,11.63
2019-02-18T22:23:11.302Z,13.20
2019-02-18T22:25:40.977Z,13.90
2019-02-18T22:28:10.499Z,12.53
2019-02-18T22:30:42.960Z,11.50
2019-02-18T22:33:12.314Z,10.23
2019-02-18T22:35:41.761Z,12.23
2019-02-18T22:38:11.236Z,16.60
2019-02-18T22:40:40.674Z,12.60
2019-02-18T22:43:10.030Z,11.27
2019-02-18T22:48:32.668Z,9.67
2019-02-18T22:51:02.251Z,13.70
2019-02-18T22:53:31.744Z,11.27
2019-02-18T22:56:01.622Z,17.53
2019-02-18T22:58:31.563Z,13.40
2019-02-18T23:04:36.661Z,14.23
2019-02-18T23:07:39.368Z,18.37
2019-02-18T23:10:39.414Z,19.20
2019-02-18T23:13:43.177Z,16.90
2019-02-18T23:16:12.637Z,15.23
2019-02-18T23:18:42.098Z,11.50
2019-02-18T23:21:40.575Z,16.57
2019-02-18T23:24:12.937Z,19.17
2019-02-18T23:26:42.276Z,14.67
2019-02-18T23:29:11.765Z,16.63
2019-02-18T23:34:23.991Z,13.90
2019-02-18T23:36:53.489Z,10.67
2019-02-18T23:39:23.013Z,14.43
2019-02-18T23:41:52.493Z,17.50
2019-02-18T23:44:39.512Z,13.57
2019-02-18T23:47:43.065Z,17.60
2019-02-18T23:50:12.497Z,16.13
2019-02-18T23:52:42.008Z,20.33
2019-02-18T23:55:11.530Z,18.23
2019-02-18T23:57:40.928Z,16.93
